Caletta — ICNZ — position and weather

sailwx.info

Track history (hours):
 
Tides and Currents Weather Stations Pressure Air Temp Water Temp Dewpoint Dewpoint Depression Visibility Wind Speed Wind Dir Waves Ship Positions

Caletta

Last reported at 2016-Aug-23 20:25 UTC. Time now 2016-Aug-25 08:03 UTC.
Position N 29°57' W 093°52'.

Length 183 m; draft 10.1 m.

Type: Ship (hazmat cat A). MMSI: 247296300.

Date/timePositionNaut miles runAvg speedWind from/ knotsBaromVisibWave heightAir tempDewpointWater temp
2016-Aug-23 20:25N 29°57' W 093°52'5 5.2
2016-Aug-23 19:29N 29°60' W 093°56'5 0.4
2016-Aug-23 07:28N 30°02' W 094°02'0 0.0
2016-Aug-23 06:28N 30°02' W 094°02'0 0.0
2016-Aug-23 04:10N 30°02' W 094°02'0 0.0
2016-Aug-23 03:31N 30°02' W 094°02'0 0.0
2016-Aug-23 02:29N 30°02' W 094°02'2 1.6
2016-Aug-23 01:30N 30°01' W 094°01'5 5.1
2016-Aug-23 00:33N 29°59' W 093°55'4 4.2
2016-Aug-22 23:33N 29°56' W 093°52'5 4.7
2016-Aug-22 22:33N 29°52' W 093°56'5 4.6
2016-Aug-22 21:33N 29°48' W 093°57'5 5.3
2016-Aug-22 20:32N 29°44' W 093°53'57 1.5
2016-Aug-21 07:18N 29°23' W 094°53'1 0.0
2016-Aug-19 15:33N 29°22' W 094°53'22 0.6
2016-Aug-18 02:28N 29°16' W 094°29'0 0.1
2016-Aug-17 23:33N 29°16' W 094°29'  
Track history (hours):
 
Tides and Currents Weather Stations Pressure Air Temp Water Temp Dewpoint Dewpoint Depression Visibility Wind Speed Wind Dir Waves Ship Positions

Caletta

Last reported at 2016-Aug-23 20:25 UTC. Time now 2016-Aug-25 08:03 UTC.
Position N 29°57' W 093°52'.

Length 183 m; draft 10.1 m.

Type: Ship (hazmat cat A). MMSI: 247296300.

Date/timePositionNaut miles runAvg speedWind from/ knotsBaromVisibWave heightAir tempDewpointWater temp
2016-Aug-23 20:25N 29°57' W 093°52'5 5.2
2016-Aug-23 19:29N 29°60' W 093°56'5 0.4
2016-Aug-23 07:28N 30°02' W 094°02'0 0.0
2016-Aug-23 06:28N 30°02' W 094°02'0 0.0
2016-Aug-23 04:10N 30°02' W 094°02'0 0.0
2016-Aug-23 03:31N 30°02' W 094°02'0 0.0
2016-Aug-23 02:29N 30°02' W 094°02'2 1.6
2016-Aug-23 01:30N 30°01' W 094°01'5 5.1
2016-Aug-23 00:33N 29°59' W 093°55'4 4.2
2016-Aug-22 23:33N 29°56' W 093°52'5 4.7
2016-Aug-22 22:33N 29°52' W 093°56'5 4.6
2016-Aug-22 21:33N 29°48' W 093°57'5 5.3
2016-Aug-22 20:32N 29°44' W 093°53'57 1.5
2016-Aug-21 07:18N 29°23' W 094°53'1 0.0
2016-Aug-19 15:33N 29°22' W 094°53'22 0.6
2016-Aug-18 02:28N 29°16' W 094°29'0 0.1
2016-Aug-17 23:33N 29°16' W 094°29'  

Dump ship's entire track history